createdAt,value
2023-07-05T00:00:36.800Z,93.73
2023-07-05T00:03:03.900Z,93.56
2023-07-05T00:05:30.636Z,94.11
2023-07-05T00:07:57.764Z,93.78
2023-07-05T00:10:24.479Z,93.94
2023-07-05T00:12:51.104Z,94.00
2023-07-05T00:15:17.977Z,94.00
2023-07-05T00:17:44.626Z,93.91
2023-07-05T00:20:12.107Z,93.78
2023-07-05T00:22:39.012Z,93.81
2023-07-05T00:25:06.181Z,94.00
2023-07-05T00:27:32.874Z,93.91
2023-07-05T00:29:59.474Z,94.25
2023-07-05T00:32:26.136Z,94.12
2023-07-05T00:34:52.759Z,94.17
2023-07-05T00:37:19.452Z,94.05
2023-07-05T00:39:46.152Z,94.13
2023-07-05T00:42:12.758Z,93.94
2023-07-05T00:44:39.570Z,94.30
2023-07-05T00:47:15.228Z,94.19
2023-07-05T00:49:41.896Z,94.15
2023-07-05T00:52:14.601Z,94.25
2023-07-05T00:54:48.022Z,94.58
2023-07-05T00:57:18.683Z,94.26
2023-07-05T00:59:55.416Z,94.19
2023-07-05T01:02:23.436Z,94.20
2023-07-05T01:04:50.572Z,94.49
2023-07-05T01:07:17.318Z,94.56
2023-07-05T01:09:47.308Z,94.58
2023-07-05T01:12:19.947Z,94.75
2023-07-05T01:15:00.089Z,94.83
2023-07-05T01:17:26.770Z,94.97
2023-07-05T01:20:32.876Z,94.95
2023-07-05T01:23:14.426Z,94.74
2023-07-05T01:25:43.612Z,94.26
2023-07-05T01:28:44.378Z,93.69
2023-07-05T01:31:20.042Z,92.73
2023-07-05T01:34:04.525Z,92.35
2023-07-05T01:36:32.003Z,91.98
2023-07-05T01:38:58.654Z,92.04
2023-07-05T01:41:25.630Z,91.64
2023-07-05T01:43:53.570Z,91.72
2023-07-05T01:46:20.205Z,91.82
2023-07-05T01:49:14.526Z,92.11
2023-07-05T01:52:06.611Z,92.20
2023-07-05T01:54:51.649Z,92.28
2023-07-05T01:57:24.601Z,91.79
2023-07-05T02:00:02.158Z,91.83
2023-07-05T02:02:34.918Z,92.06
2023-07-05T02:05:03.637Z,91.91
2023-07-05T02:07:31.975Z,91.94
2023-07-05T02:09:58.768Z,92.47
2023-07-05T02:12:26.585Z,92.23
2023-07-05T02:14:53.399Z,91.93
2023-07-05T02:17:21.212Z,91.62
2023-07-05T02:19:48.032Z,90.32
2023-07-05T02:22:14.941Z,90.62
2023-07-05T02:24:41.923Z,90.00
2023-07-05T02:27:08.597Z,90.03
2023-07-05T02:29:35.220Z,90.09
2023-07-05T02:32:02.016Z,88.63
2023-07-05T02:34:29.827Z,86.79
2023-07-05T02:36:56.439Z,85.29
2023-07-05T02:39:23.002Z,85.01
2023-07-05T02:41:49.604Z,85.90
2023-07-05T02:44:16.296Z,84.57
2023-07-05T02:46:42.972Z,84.23
2023-07-05T02:49:09.590Z,84.45
2023-07-05T02:51:36.256Z,83.85
2023-07-05T02:54:02.890Z,83.48
2023-07-05T02:56:29.563Z,82.85
2023-07-05T02:58:56.147Z,83.40
2023-07-05T03:01:23.060Z,83.01
2023-07-05T03:03:49.776Z,82.52
2023-07-05T03:06:17.005Z,82.29
2023-07-05T03:08:43.619Z,82.61
2023-07-05T03:11:10.269Z,82.73
2023-07-05T03:13:37.381Z,84.04
2023-07-05T03:16:04.859Z,83.46
2023-07-05T03:18:31.832Z,82.71
2023-07-05T03:20:58.491Z,81.91
2023-07-05T03:23:25.153Z,81.99
2023-07-05T03:26:08.906Z,82.12
2023-07-05T03:28:37.080Z,82.18
2023-07-05T03:31:06.535Z,81.47
2023-07-05T03:33:34.509Z,81.15
2023-07-05T03:36:08.329Z,81.06
2023-07-05T03:38:35.370Z,80.77
2023-07-05T03:41:05.686Z,80.19
2023-07-05T03:43:36.523Z,80.00
2023-07-05T03:46:05.291Z,79.77
2023-07-05T03:48:38.823Z,80.28
2023-07-05T03:51:06.763Z,79.21
2023-07-05T03:53:34.623Z,79.18
2023-07-05T03:56:03.056Z,79.04
2023-07-05T03:58:30.552Z,79.27
2023-07-05T04:01:24.481Z,79.33
2023-07-05T04:03:55.332Z,78.62
2023-07-05T04:06:23.912Z,78.16
2023-07-05T04:08:50.988Z,78.18
2023-07-05T04:11:18.346Z,77.92
2023-07-05T04:13:46.146Z,77.62
2023-07-05T04:16:15.926Z,77.61
2023-07-05T04:18:44.436Z,77.37
2023-07-05T04:21:11.764Z,77.13
2023-07-05T04:23:40.437Z,77.36
2023-07-05T04:26:11.248Z,77.19
2023-07-05T04:28:39.552Z,77.02
2023-07-05T04:31:10.222Z,76.75
2023-07-05T04:33:37.209Z,79.02
2023-07-05T04:36:05.069Z,77.07
2023-07-05T04:38:32.712Z,76.71
2023-07-05T04:40:59.637Z,76.13
2023-07-05T04:43:30.124Z,75.89
2023-07-05T04:45:58.762Z,75.63
2023-07-05T04:48:28.336Z,74.70
2023-07-05T04:50:56.512Z,74.26
2023-07-05T04:53:24.284Z,73.19
2023-07-05T04:55:53.519Z,71.90
2023-07-05T04:58:21.635Z,72.30
2023-07-05T05:00:50.363Z,72.45
2023-07-05T05:03:19.005Z,71.98
2023-07-05T05:05:49.244Z,71.46
2023-07-05T05:08:16.009Z,70.86
2023-07-05T05:10:43.242Z,70.38
2023-07-05T05:13:09.990Z,70.62
2023-07-05T05:15:41.040Z,69.83
2023-07-05T05:18:09.230Z,68.78
2023-07-05T05:20:39.254Z,69.59
2023-07-05T05:23:06.899Z,68.90
2023-07-05T05:25:34.283Z,68.19
2023-07-05T05:28:01.925Z,67.70
2023-07-05T05:30:32.359Z,68.40
2023-07-05T05:32:59.471Z,68.80
2023-07-05T05:35:26.260Z,67.26
2023-07-05T05:37:52.899Z,67.17
2023-07-05T05:40:20.569Z,66.52
2023-07-05T05:42:47.293Z,66.25
2023-07-05T05:45:14.002Z,66.60
2023-07-05T05:47:40.986Z,66.08
2023-07-05T05:50:08.254Z,65.93
2023-07-05T05:52:35.543Z,65.98
2023-07-05T05:55:03.712Z,65.03
2023-07-05T05:57:30.735Z,64.82
2023-07-05T05:59:57.438Z,65.09
2023-07-05T06:02:24.191Z,65.73
2023-07-05T06:04:51.421Z,65.17
2023-07-05T06:07:18.260Z,68.25
2023-07-05T06:09:47.715Z,65.05
2023-07-05T06:12:14.859Z,64.63
2023-07-05T06:14:41.803Z,64.84
2023-07-05T06:17:08.597Z,64.77
2023-07-05T06:19:35.363Z,64.19
2023-07-05T06:22:02.072Z,64.29
2023-07-05T06:24:28.676Z,63.53
2023-07-05T06:26:55.351Z,63.03
2023-07-05T06:29:22.043Z,63.55
2023-07-05T06:31:48.632Z,63.95
2023-07-05T06:34:15.334Z,64.19
2023-07-05T06:36:42.155Z,63.79
2023-07-05T06:39:08.852Z,64.45
2023-07-05T06:41:35.573Z,64.26
2023-07-05T06:44:02.725Z,63.82
2023-07-05T06:46:29.563Z,63.87
2023-07-05T06:48:56.248Z,63.19
2023-07-05T06:51:23.212Z,63.63
2023-07-05T06:53:50.030Z,63.55
2023-07-05T06:56:17.430Z,63.83
2023-07-05T06:58:44.645Z,65.13
2023-07-05T07:01:12.864Z,63.30
2023-07-05T07:03:40.143Z,63.02
2023-07-05T07:06:06.880Z,62.86
2023-07-05T07:08:35.312Z,62.57
2023-07-05T07:11:07.131Z,62.87
2023-07-05T07:13:37.438Z,62.22
2023-07-05T07:16:10.397Z,62.60
2023-07-05T07:18:38.635Z,62.38
2023-07-05T07:21:10.294Z,60.62
2023-07-05T07:23:37.655Z,59.85
2023-07-05T07:26:12.997Z,57.72
2023-07-05T07:28:40.170Z,57.18
2023-07-05T07:31:21.933Z,53.14
2023-07-05T07:33:49.579Z,51.78
2023-07-05T07:36:18.802Z,52.39
2023-07-05T07:38:46.047Z,54.54
2023-07-05T07:41:21.414Z,54.21
2023-07-05T07:43:51.529Z,54.88
2023-07-05T07:46:21.225Z,55.79
2023-07-05T07:48:50.096Z,56.23
2023-07-05T07:51:35.925Z,56.37
2023-07-05T07:54:05.400Z,58.69
2023-07-05T07:56:32.311Z,57.05
2023-07-05T07:59:02.305Z,56.64
2023-07-05T08:01:35.209Z,55.36
2023-07-05T08:04:06.152Z,56.76
2023-07-05T08:06:42.437Z,55.87
2023-07-05T08:09:12.794Z,54.48
2023-07-05T08:11:40.319Z,54.85
2023-07-05T08:14:08.377Z,55.18
2023-07-05T08:16:35.286Z,55.95
2023-07-05T08:19:02.043Z,55.92
2023-07-05T08:21:29.015Z,55.89
2023-07-05T08:23:55.771Z,56.02
2023-07-05T08:26:22.496Z,55.39
2023-07-05T08:28:49.224Z,58.13
2023-07-05T08:31:16.233Z,56.86
2023-07-05T08:33:44.644Z,57.72
2023-07-05T08:36:36.945Z,58.54
2023-07-05T08:39:06.468Z,57.08
2023-07-05T08:41:45.310Z,58.17
2023-07-05T08:44:36.746Z,60.91
2023-07-05T08:47:29.544Z,57.96
2023-07-05T08:50:17.490Z,58.94
2023-07-05T08:52:49.610Z,60.39
2023-07-05T08:55:22.344Z,58.71
2023-07-05T08:57:57.002Z,58.93
2023-07-05T09:00:53.536Z,58.62
2023-07-05T09:03:23.573Z,58.32
2023-07-05T09:05:59.710Z,59.21
2023-07-05T09:08:57.087Z,58.47
2023-07-05T09:11:37.893Z,58.75
2023-07-05T09:14:24.696Z,57.46
2023-07-05T09:16:54.380Z,58.25
2023-07-05T09:19:34.755Z,57.25
2023-07-05T09:22:05.851Z,57.54
2023-07-05T09:24:37.262Z,59.80
2023-07-05T09:27:10.209Z,61.30
2023-07-05T09:30:00.006Z,58.58
2023-07-05T09:32:39.528Z,58.53
2023-07-05T09:35:17.057Z,57.09
2023-07-05T09:38:02.249Z,58.21
2023-07-05T09:40:34.312Z,56.33
2023-07-05T09:43:07.283Z,57.12
2023-07-05T09:45:34.376Z,58.16
2023-07-05T09:48:06.920Z,57.34
2023-07-05T09:50:33.938Z,58.05
2023-07-05T09:53:32.604Z,56.84
2023-07-05T09:56:02.759Z,56.43
2023-07-05T09:58:29.389Z,57.17
2023-07-05T10:00:56.416Z,55.10
2023-07-05T10:03:23.524Z,55.97
2023-07-05T10:05:55.205Z,56.97
2023-07-05T10:08:23.408Z,56.06
2023-07-05T10:10:50.918Z,57.52
2023-07-05T10:13:25.934Z,55.89
2023-07-05T10:15:59.347Z,56.28
2023-07-05T10:18:34.949Z,53.59
2023-07-05T10:21:05.093Z,54.09
2023-07-05T10:23:34.886Z,52.38
2023-07-05T10:26:04.617Z,53.01
2023-07-05T10:28:34.113Z,50.84
2023-07-05T10:31:05.161Z,49.32
2023-07-05T10:33:36.378Z,49.68
2023-07-05T10:36:10.352Z,49.05
2023-07-05T10:38:47.125Z,51.98
2023-07-05T10:41:33.747Z,53.49
2023-07-05T10:44:03.933Z,52.58
2023-07-05T10:46:31.825Z,53.94
2023-07-05T10:48:59.313Z,54.55
2023-07-05T10:51:32.262Z,55.53
2023-07-05T10:54:06.400Z,55.13
2023-07-05T10:56:36.579Z,54.68
2023-07-05T10:59:21.847Z,55.49
2023-07-05T11:01:56.444Z,55.00
2023-07-05T11:04:29.487Z,54.16
2023-07-05T11:07:08.291Z,55.99
2023-07-05T11:09:37.657Z,56.39
2023-07-05T11:12:12.156Z,57.05
2023-07-05T11:14:38.941Z,57.78
2023-07-05T11:17:12.297Z,57.24
2023-07-05T11:19:40.661Z,56.46
2023-07-05T11:22:07.600Z,58.19
2023-07-05T11:24:40.192Z,56.70
2023-07-05T11:27:35.836Z,56.96
2023-07-05T11:30:02.453Z,57.58
2023-07-05T11:33:18.451Z,56.18
2023-07-05T11:35:50.993Z,55.79
2023-07-05T11:38:36.298Z,54.82
2023-07-05T11:41:07.868Z,52.82
2023-07-05T11:43:43.245Z,54.79
2023-07-05T11:46:38.133Z,56.84
2023-07-05T11:49:19.517Z,57.26
2023-07-05T11:51:46.505Z,58.21
2023-07-05T11:54:14.794Z,57.60
2023-07-05T11:56:43.387Z,57.95
2023-07-05T11:59:13.058Z,58.85
2023-07-05T12:01:41.257Z,58.65
2023-07-05T12:04:18.609Z,59.17
2023-07-05T12:06:46.692Z,59.23
2023-07-05T12:09:17.908Z,59.92
2023-07-05T12:11:44.928Z,60.13
2023-07-05T12:14:20.631Z,59.10
2023-07-05T12:16:47.903Z,58.03
2023-07-05T12:19:31.461Z,54.29
2023-07-05T12:22:03.977Z,55.51
2023-07-05T12:25:00.058Z,54.84
2023-07-05T12:27:30.162Z,55.20
2023-07-05T12:29:59.069Z,57.31
2023-07-05T12:32:28.262Z,58.72
2023-07-05T12:35:06.705Z,59.15
2023-07-05T12:37:34.170Z,57.26
2023-07-05T12:40:18.512Z,58.63
2023-07-05T12:42:57.433Z,59.49
2023-07-05T12:45:25.883Z,59.78
2023-07-05T12:47:52.652Z,59.51
2023-07-05T12:50:24.710Z,59.24
2023-07-05T12:53:03.325Z,58.70
2023-07-05T12:55:33.877Z,58.76
2023-07-05T12:58:02.642Z,57.77
2023-07-05T13:00:29.381Z,59.27
2023-07-05T13:03:00.420Z,60.18
2023-07-05T13:05:28.726Z,61.04
2023-07-05T13:07:56.394Z,58.82
2023-07-05T13:10:23.149Z,59.74
2023-07-05T13:12:54.909Z,59.87
2023-07-05T13:15:32.711Z,58.99
2023-07-05T13:18:21.193Z,58.92
2023-07-05T13:20:48.486Z,57.20
2023-07-05T13:23:15.152Z,58.80
2023-07-05T13:25:48.697Z,56.86
2023-07-05T13:28:23.429Z,55.72
2023-07-05T13:30:58.490Z,57.28
2023-07-05T13:33:26.213Z,58.61
2023-07-05T13:35:53.612Z,59.98
2023-07-05T13:38:21.679Z,59.35
2023-07-05T13:40:59.386Z,58.77
2023-07-05T13:43:26.567Z,59.35
2023-07-05T13:45:53.273Z,58.68
2023-07-05T13:48:21.279Z,57.20
2023-07-05T13:50:48.217Z,57.42
2023-07-05T13:53:20.447Z,56.59
2023-07-05T13:55:47.558Z,55.94
2023-07-05T13:58:15.864Z,54.57
2023-07-05T14:00:45.307Z,55.47
2023-07-05T14:03:12.604Z,52.07
2023-07-05T14:05:40.289Z,52.12
2023-07-05T14:08:13.298Z,51.46
2023-07-05T14:10:42.148Z,50.94
2023-07-05T14:13:14.681Z,49.55
2023-07-05T14:15:43.256Z,49.02
2023-07-05T14:18:16.243Z,52.14
2023-07-05T14:20:42.994Z,49.21
2023-07-05T14:23:13.629Z,48.60
2023-07-05T14:25:50.507Z,47.01
2023-07-05T14:28:17.809Z,45.96
2023-07-05T14:30:46.592Z,45.92
2023-07-05T14:33:17.761Z,45.66
2023-07-05T14:35:44.451Z,46.73
2023-07-05T14:38:11.153Z,42.54
2023-07-05T14:40:38.866Z,43.85
2023-07-05T14:43:08.583Z,44.53
2023-07-05T14:45:37.214Z,46.75
2023-07-05T14:48:04.404Z,43.01
2023-07-05T14:50:33.072Z,43.79
2023-07-05T14:53:03.178Z,42.04
2023-07-05T14:55:31.191Z,42.88
2023-07-05T14:57:58.391Z,42.63
2023-07-05T15:00:27.858Z,43.64
2023-07-05T15:03:03.113Z,41.99
2023-07-05T15:05:30.000Z,41.86
2023-07-05T15:07:56.582Z,42.95
2023-07-05T15:10:24.325Z,40.99
2023-07-05T15:12:51.006Z,41.93
2023-07-05T15:15:26.695Z,41.87
2023-07-05T15:17:56.138Z,41.93
2023-07-05T15:20:23.678Z,41.41
2023-07-05T15:22:50.649Z,40.87
2023-07-05T15:25:19.201Z,41.44
2023-07-05T15:27:48.194Z,40.22
2023-07-05T15:30:15.695Z,40.99
2023-07-05T15:32:44.784Z,42.68
2023-07-05T15:35:14.663Z,40.85
2023-07-05T15:37:41.555Z,42.09
2023-07-05T15:40:09.282Z,43.76
2023-07-05T15:42:52.927Z,41.61
2023-07-05T15:45:25.229Z,42.19
2023-07-05T15:47:56.308Z,41.12
2023-07-05T15:50:24.622Z,41.21
2023-07-05T15:52:51.956Z,40.74
2023-07-05T15:55:19.353Z,41.22
2023-07-05T15:57:46.556Z,41.95
2023-07-05T16:00:37.240Z,40.93
2023-07-05T16:03:07.047Z,40.98
2023-07-05T16:05:37.840Z,41.42
2023-07-05T16:08:06.643Z,43.55
2023-07-05T16:10:35.890Z,41.33
2023-07-05T16:13:02.994Z,41.13
2023-07-05T16:15:33.181Z,41.20
2023-07-05T16:18:00.368Z,40.29
2023-07-05T16:20:28.523Z,39.41
2023-07-05T16:22:56.034Z,42.39
2023-07-05T16:25:43.693Z,40.56
2023-07-05T16:28:11.872Z,40.91
2023-07-05T16:30:38.538Z,41.86
2023-07-05T16:33:05.316Z,41.36
2023-07-05T16:35:32.377Z,42.12
2023-07-05T16:37:59.119Z,41.49
2023-07-05T16:40:25.697Z,41.54
2023-07-05T16:42:53.921Z,41.99
2023-07-05T16:45:21.068Z,41.24
2023-07-05T16:47:47.803Z,40.89
2023-07-05T16:50:17.883Z,42.39
2023-07-05T16:52:46.281Z,42.31
2023-07-05T16:55:12.984Z,43.19
2023-07-05T16:57:39.589Z,41.97
2023-07-05T17:00:06.949Z,42.63
2023-07-05T17:02:34.958Z,41.46
2023-07-05T17:05:01.787Z,43.42
2023-07-05T17:07:28.832Z,42.99
2023-07-05T17:09:55.794Z,43.01
2023-07-05T17:12:22.618Z,42.95
2023-07-05T17:14:49.921Z,43.52
2023-07-05T17:17:17.871Z,43.59
2023-07-05T17:19:44.783Z,42.91
2023-07-05T17:22:11.432Z,43.24
2023-07-05T17:24:38.249Z,42.65
2023-07-05T17:27:05.256Z,42.73
2023-07-05T17:29:32.259Z,42.23
2023-07-05T17:31:59.127Z,43.03
2023-07-05T17:34:29.983Z,42.99
2023-07-05T17:36:57.458Z,42.96
2023-07-05T17:39:25.461Z,42.18
2023-07-05T17:41:53.822Z,44.28
2023-07-05T17:44:20.553Z,42.86
2023-07-05T17:46:47.139Z,42.98
2023-07-05T17:49:13.793Z,42.98
2023-07-05T17:51:40.737Z,43.99
2023-07-05T17:54:08.798Z,42.45
2023-07-05T17:56:35.778Z,42.59
2023-07-05T17:59:02.598Z,42.68
2023-07-05T18:01:31.118Z,42.58
2023-07-05T18:03:58.659Z,43.50
2023-07-05T18:06:25.845Z,43.55
2023-07-05T18:08:52.792Z,43.12
2023-07-05T18:11:22.602Z,43.62
2023-07-05T18:13:50.511Z,46.42
2023-07-05T18:16:42.814Z,44.12
2023-07-05T18:19:09.781Z,44.40
2023-07-05T18:21:39.818Z,45.70
2023-07-05T18:24:10.088Z,45.06
2023-07-05T18:26:40.021Z,43.41
2023-07-05T18:29:07.173Z,43.86
2023-07-05T18:31:35.024Z,44.60
2023-07-05T18:34:01.735Z,45.64
2023-07-05T18:36:28.408Z,46.38
2023-07-05T18:38:55.027Z,45.34
2023-07-05T18:41:22.693Z,45.78
2023-07-05T18:43:49.718Z,45.54
2023-07-05T18:46:17.136Z,45.33
2023-07-05T18:48:44.046Z,45.40
2023-07-05T18:51:12.411Z,45.76
2023-07-05T18:53:39.231Z,45.17
2023-07-05T18:56:09.766Z,45.54
2023-07-05T18:58:36.442Z,45.52
2023-07-05T19:01:06.474Z,45.50
2023-07-05T19:03:33.628Z,45.96
2023-07-05T19:06:05.170Z,48.08
2023-07-05T19:08:36.531Z,47.77
2023-07-05T19:11:09.513Z,48.34
2023-07-05T19:13:36.652Z,52.58
2023-07-05T19:16:04.019Z,54.23
2023-07-05T19:18:31.157Z,54.16
2023-07-05T19:21:00.600Z,54.59
2023-07-05T19:23:32.486Z,54.24
2023-07-05T19:26:01.926Z,54.51
2023-07-05T19:28:30.293Z,55.82
2023-07-05T19:31:12.219Z,56.45
2023-07-05T19:33:43.223Z,56.73
2023-07-05T19:36:13.740Z,58.34
2023-07-05T19:38:40.391Z,58.48
2023-07-05T19:41:07.205Z,55.55
2023-07-05T19:43:34.284Z,58.36
2023-07-05T19:46:05.633Z,57.57
2023-07-05T19:48:32.844Z,59.81
2023-07-05T19:51:05.123Z,60.26
2023-07-05T19:53:31.785Z,59.54
2023-07-05T19:55:58.696Z,55.41
2023-07-05T19:58:25.775Z,54.14
2023-07-05T20:00:54.414Z,54.23
2023-07-05T20:03:21.277Z,52.76
2023-07-05T20:05:51.890Z,54.36
2023-07-05T20:08:20.886Z,52.75
2023-07-05T20:10:47.548Z,52.75
2023-07-05T20:13:15.759Z,53.84
2023-07-05T20:15:43.812Z,53.03
2023-07-05T20:18:13.049Z,57.09
2023-07-05T20:20:40.480Z,54.50
2023-07-05T20:23:07.266Z,54.02
2023-07-05T20:25:33.925Z,57.20
2023-07-05T20:28:00.712Z,58.89
2023-07-05T20:30:27.389Z,58.38
2023-07-05T20:32:54.055Z,57.80
2023-07-05T20:35:20.735Z,59.21
2023-07-05T20:37:59.203Z,58.81
2023-07-05T20:40:30.465Z,58.92
2023-07-05T20:42:57.678Z,60.03
2023-07-05T20:45:25.783Z,60.88
2023-07-05T20:47:52.514Z,59.97
2023-07-05T20:50:19.428Z,58.57
2023-07-05T20:52:46.223Z,59.95
2023-07-05T20:55:13.076Z,61.42
2023-07-05T20:57:41.301Z,61.71
2023-07-05T21:00:09.659Z,62.25
2023-07-05T21:02:37.017Z,62.27
2023-07-05T21:05:04.840Z,62.38
2023-07-05T21:07:31.876Z,63.00
2023-07-05T21:09:58.555Z,64.16
2023-07-05T21:12:26.602Z,60.49
2023-07-05T21:14:53.284Z,62.40
2023-07-05T21:17:19.953Z,59.19
2023-07-05T21:19:46.604Z,58.94
2023-07-05T21:22:13.496Z,59.17
2023-07-05T21:24:40.357Z,60.52
2023-07-05T21:27:07.026Z,59.74
2023-07-05T21:29:33.723Z,61.79
2023-07-05T21:32:00.512Z,63.20
2023-07-05T21:34:27.635Z,61.68
2023-07-05T21:36:54.184Z,62.21
2023-07-05T21:39:21.094Z,63.54
2023-07-05T21:41:49.504Z,63.70
2023-07-05T21:44:16.775Z,61.68
2023-07-05T21:46:46.539Z,64.51
2023-07-05T21:49:13.234Z,64.90
2023-07-05T21:51:45.382Z,66.43
2023-07-05T21:54:12.583Z,65.74
2023-07-05T21:56:42.827Z,64.00
2023-07-05T21:59:10.921Z,62.30
2023-07-05T22:01:38.867Z,62.87
2023-07-05T22:04:07.085Z,61.52
2023-07-05T22:06:34.010Z,61.39
2023-07-05T22:09:01.648Z,62.05
2023-07-05T22:11:28.794Z,64.17
2023-07-05T22:13:58.282Z,63.08
2023-07-05T22:16:27.756Z,64.27
2023-07-05T22:18:56.248Z,65.21
2023-07-05T22:21:24.690Z,66.33
2023-07-05T22:23:52.290Z,67.27
2023-07-05T22:26:19.306Z,65.61
2023-07-05T22:28:46.003Z,67.00
2023-07-05T22:31:13.381Z,65.88
2023-07-05T22:33:39.991Z,66.10
2023-07-05T22:36:07.222Z,67.07
2023-07-05T22:38:34.310Z,65.96
2023-07-05T22:41:01.219Z,67.22
2023-07-05T22:43:29.221Z,68.37
2023-07-05T22:46:01.473Z,67.48
2023-07-05T22:48:33.514Z,67.41
2023-07-05T22:51:01.196Z,67.46
2023-07-05T22:53:28.407Z,67.40
2023-07-05T22:55:55.882Z,67.20
2023-07-05T22:58:26.084Z,69.13
2023-07-05T23:00:57.946Z,69.23
2023-07-05T23:03:25.926Z,70.50
2023-07-05T23:05:54.280Z,70.92
2023-07-05T23:08:21.164Z,70.21
2023-07-05T23:10:47.783Z,71.72
2023-07-05T23:13:14.458Z,72.56
2023-07-05T23:15:45.194Z,73.20
2023-07-05T23:18:11.882Z,73.47
2023-07-05T23:20:39.746Z,74.00
2023-07-05T23:23:08.741Z,74.35
2023-07-05T23:25:35.618Z,74.72
2023-07-05T23:28:04.308Z,75.07
2023-07-05T23:30:30.948Z,75.80
2023-07-05T23:32:57.580Z,76.32
2023-07-05T23:35:25.653Z,76.24
2023-07-05T23:37:52.645Z,76.78
2023-07-05T23:40:19.349Z,76.87
2023-07-05T23:42:46.438Z,77.65
2023-07-05T23:45:13.161Z,76.92
2023-07-05T23:47:40.974Z,77.95
2023-07-05T23:50:09.176Z,78.49
2023-07-05T23:52:35.945Z,78.91
2023-07-05T23:55:04.455Z,78.86
2023-07-05T23:57:31.556Z,78.66
2023-07-05T23:59:58.296Z,78.55
